Date,TemperatureHighF,TemperatureAvgF,TemperatureLowF,DewpointHighF,DewpointAvgF,DewpointLowF,HumidityHigh,HumidityAvg,HumidityLow,PressureMaxIn,PressureMinIn,WindSpeedMaxMPH,WindSpeedAvgMPH,GustSpeedMaxMPH,PrecipitationSumIn
2013-1-1,59.0,47.0,28.0,55.0,33.9,22.0,89,63,42,29.94,29.67,23,5,26,0.00
2013-1-2,47.0,31.1,19.0,40.0,25.4,9.0,95,82,50,30.23,29.87,20,4,21,0.00
2013-1-3,39.0,23.6,11.0,33.0,16.8,7.0,93,79,60,30.23,29.88,10,2,10,0.00
2013-1-4,53.0,44.8,30.0,42.0,36.4,25.0,95,74,59,30.03,29.75,23,7,28,0.00
2013-1-5,57.0,48.2,40.0,43.0,36.0,27.0,84,65,38,30.22,29.83,18,4,18,0.05
2013-1-6,55.0,48.1,40.0,50.0,43.8,33.0,95,85,71,30.22,29.87,18,1,19,0.00
2013-1-7,48.0,39.5,30.0,47.0,34.5,23.0,97,84,65,30.34,29.94,18,4,18,0.00
2013-1-8,51.0,37.2,25.0,40.0,32.0,23.0,99,84,57,30.35,30.23,13,2,13,0.00
2013-1-9,57.0,40.4,23.0,45.0,35.3,21.0,99,85,54,30.35,29.91,25,4,27,0.00
2013-1-10,64.0,54.9,47.0,45.0,40.0,35.0,86,59,41,30.55,30.11,21,5,23,0.00
2013-1-11,54.0,50.1,43.0,53.0,48.5,41.0,100,94,81,30.53,30.05,6,2,6,0.08
2013-1-12,69.0,58.9,51.0,69.0,58.9,51.0,100,100,100,30.12,30.02,6,2,7,0.02
2013-1-13,68.0,64.5,61.0,67.0,64.5,61.0,100,100,100,30.10,29.78,17,3,19,0.01
2013-1-14,74.0,65.1,59.0,69.0,56.4,46.0,100,76,45,30.28,29.79,21,5,23,0.00
2013-1-15,66.0,59.0,54.0,57.0,52.2,47.0,95,79,58,30.31,30.03,12,2,12,0.00
2013-1-16,65.0,59.3,55.0,65.0,58.4,48.0,100,97,79,30.18,29.76,12,2,13,0.00
2013-1-17,66.0,55.2,40.0,62.0,46.4,26.0,100,75,44,30.29,29.79,15,6,20,0.00
2013-1-18,53.0,38.4,34.0,99.9,30.5,-99.9,80,58,27,30.35,30.06,15,4,17,0.00
2013-1-19,68.0,58.9,44.0,54.0,45.2,34.0,72,61,54,30.22,29.46,17,4,18,0.03
2013-1-20,68.0,56.7,42.0,60.0,40.1,20.0,77,55,39,30.01,29.42,44,10,45,0.00
2013-1-21,45.0,39.4,30.0,40.0,29.2,20.0,97,71,50,30.02,29.73,11,4,14,0.00
2013-1-22,37.0,30.7,25.0,33.0,17.7,2.0,95,64,40,30.12,29.74,29,6,29,0.00
2013-1-23,31.0,23.5,16.0,11.0,4.1,-3.0,71,47,29,30.17,30.05,18,4,19,0.00
2013-1-24,36.0,22.2,12.0,12.0,7.4,0.0,88,58,26,30.37,30.12,21,3,25,0.00
2013-1-25,32.0,25.3,16.0,25.0,13.6,6.0,92,66,41,30.37,30.05,10,2,11,0.00
2013-1-26,37.0,29.3,24.0,25.0,21.0,16.0,94,75,53,30.43,30.04,10,2,10,0.00
2013-1-27,43.0,31.5,20.0,25.0,19.4,15.0,94,66,38,30.49,30.30,10,3,10,0.00
2013-1-28,46.0,35.4,29.0,41.0,32.1,20.0,100,90,68,30.47,29.93,7,2,8,0.00
2013-1-29,56.0,47.8,39.0,53.0,47.0,39.0,100,97,91,30.11,29.71,7,2,9,0.01
2013-1-30,81.0,58.5,50.0,65.0,58.5,46.0,100,100,99,29.96,28.77,50,4,54,0.56
2013-1-31,64.0,46.9,37.0,64.0,33.4,16.0,100,63,42,29.68,28.77,47,13,50,0.58
2013-2-1,40.0,29.7,20.0,29.0,13.5,4.0,84,54,41,30.18,29.55,31,8,31,0.00
2013-2-2,29.0,22.2,14.0,22.0,12.8,6.0,90,70,53,30.18,29.93,16,4,19,0.00
2013-2-3,32.0,22.7,13.0,17.0,13.7,9.0,95,73,47,30.00,29.71,13,2,13,0.00
2013-2-4,30.0,21.7,12.0,18.0,9.0,1.0,87,63,35,29.95,29.71,34,6,34,0.00
2013-2-5,28.0,20.1,8.0,14.0,8.2,-1.0,94,64,43,29.98,29.84,9,2,10,0.00
2013-2-6,33.0,22.9,8.0,22.0,6.5,-10.0,91,56,21,30.48,29.85,30,5,30,0.00
2013-2-7,17.0,10.0,6.0,2.0,-4.7,-9.0,68,54,41,30.55,30.21,13,5,13,0.00
2013-2-8,22.0,13.0,6.0,16.0,8.3,-5.0,97,86,62,30.37,29.79,19,5,23,0.00
2013-2-9,12.0,2.7,-8.0,10.0,-7.3,-20.0,97,68,41,30.45,29.82,20,6,20,0.00
2013-2-10,13.0,-1.3,-16.0,-5.0,-11.2,-20.0,90,69,32,30.51,29.98,7,1,7,0.00
2013-2-11,21.0,6.7,-14.0,15.0,1.9,-19.0,96,85,68,30.23,29.57,23,3,25,0.19
2013-2-12,15.0,9.6,2.0,5.0,-0.4,-7.0,79,67,57,29.85,29.60,24,8,29,0.00
2013-2-13,10.0,3.5,-7.0,1.0,-5.5,-11.0,92,70,47,29.83,29.68,12,3,13,0.00
2013-2-14,9.0,-0.1,-8.0,-3.0,-9.0,-15.0,92,70,44,29.89,29.68,14,3,15,0.00
2013-2-15,15.0,4.8,-3.0,-2.0,-6.6,-13.0,95,65,37,29.95,29.81,23,5,24,0.00
2013-2-16,4.0,-5.3,-15.0,-2.0,-17.0,-33.0,93,61,36,29.96,29.71,17,5,19,0.00
2013-2-17,-8.0,-16.7,-23.0,-26.0,-32.2,-38.0,61,47,32,30.10,29.61,29,8,29,0.00
2013-2-18,-1.0,-15.0,-27.0,-18.0,-32.2,-37.0,73,46,20,30.13,29.88,13,4,14,0.00
2013-2-19,8.0,-3.7,-17.0,1.0,-12.1,-27.0,97,72,43,30.13,29.56,31,3,34,0.15
2013-2-20,0.0,-7.0,-13.0,-3.0,-17.2,-32.0,93,64,47,29.89,29.58,29,10,31,0.00
2013-2-21,5.0,-14.6,-21.0,-17.0,-26.1,-34.0,80,59,44,30.39,29.81,21,6,21,0.00
2013-2-22,3.0,-5.3,-16.0,-9.0,-14.4,-23.0,84,68,51,30.40,30.10,11,3,11,0.00
2013-2-23,16.0,7.3,-2.0,16.0,2.7,-11.0,100,85,64,30.20,29.78,5,2,6,0.02
2013-2-24,20.0,14.7,12.0,19.0,13.7,8.0,100,98,90,30.04,29.73,8,2,10,0.33
2013-2-25,21.0,13.4,8.0,13.0,8.9,-1.0,100,86,67,30.27,29.95,7,2,7,0.00
2013-2-26,18.0,8.7,1.0,8.0,1.5,-8.0,98,77,58,30.29,29.80,16,3,16,0.00
2013-2-27,23.0,6.1,-2.0,16.0,1.0,-8.0,97,84,58,30.02,29.50,15,5,16,0.32
2013-2-28,33.0,9.3,-1.0,33.0,5.6,-3.0,100,89,71,29.61,29.49,8,2,8,0.01
2013-3-1,25.0,7.5,0.0,18.0,2.7,-9.0,97,85,70,29.72,29.54,14,4,14,0.01
2013-3-2,15.0,0.1,-9.0,11.0,-6.0,-16.0,94,79,62,29.73,29.67,13,6,16,0.01
2013-3-3,4.0,-3.6,-11.0,0.0,-9.2,-16.0,89,81,68,29.72,29.63,12,3,14,0.06
2013-3-4,4.0,-4.2,-11.0,-8.0,-14.7,-21.0,77,64,48,30.00,29.66,18,4,19,0.00
2013-3-5,2.0,-5.7,-12.0,-6.0,-14.0,-21.0,88,70,57,30.06,29.87,13,4,15,0.00
2013-3-6,7.0,0.6,-5.0,-3.0,-9.0,-15.0,90,68,51,30.11,30.02,21,6,24,0.00
2013-3-7,7.0,-0.2,-7.0,-5.0,-8.6,-14.0,97,73,50,30.13,30.07,16,6,19,0.00
2013-3-8,9.0,-1.2,-7.0,-5.0,-8.5,-16.0,97,76,50,30.32,30.08,18,5,21,0.17
2013-3-9,18.0,2.3,-10.0,-8.0,-12.5,-20.0,86,55,31,30.33,30.24,10,3,12,0.00
2013-3-10,19.0,6.2,-10.0,-3.0,-9.8,-17.0,88,53,28,30.33,30.11,17,4,19,0.00
2013-3-11,40.0,8.7,3.0,2.0,-2.6,-8.0,74,63,50,30.18,29.80,25,6,26,0.05
2013-3-12,30.0,7.8,-5.0,16.0,3.3,-15.0,96,86,70,29.96,29.59,18,6,20,1.65
2013-3-13,2.0,-5.7,-12.0,-9.0,-18.4,-28.0,88,59,32,29.79,29.69,24,6,27,0.00
2013-3-14,-9.0,-16.5,-24.0,-22.0,-30.7,-40.0,64,51,38,29.90,29.74,28,9,31,0.00
2013-3-15,-11.0,-18.8,-27.0,-16.0,-28.4,-39.0,92,65,47,29.90,29.54,20,6,21,0.00
2013-3-16,-13.0,-19.3,-26.0,-27.0,-30.5,-34.0,81,59,43,29.99,29.73,11,4,12,0.00
2013-3-17,-12.0,-21.2,-27.0,-29.0,-37.3,-45.0,87,48,24,30.42,29.87,20,5,22,0.00
2013-3-18,-14.0,-23.9,-32.0,-27.0,-38.8,-47.0,93,52,24,30.42,29.82,13,2,15,0.00
2013-3-19,-22.0,-25.8,-33.0,-24.0,-28.2,-38.0,95,93,84,30.04,29.65,17,1,17,0.00
2013-3-20,-25.0,-31.5,-38.0,-32.0,-38.9,-46.0,88,71,46,29.74,29.65,32,6,33,0.00
2013-3-21,-30.0,-37.0,-42.0,-41.0,-46.2,-52.0,84,64,37,29.74,29.57,14,4,14,0.06
2013-3-22,-31.0,-39.3,-44.0,-42.0,-47.4,-51.0,84,67,45,29.75,29.59,24,6,27,0.12
2013-3-23,-32.0,-38.1,-44.0,-45.0,-50.3,-55.0,76,54,34,29.84,29.69,29,7,29,0.00
2013-3-24,-34.0,-39.5,-45.0,-48.0,-51.2,-55.0,68,54,41,29.85,29.65,17,5,18,0.00
2013-3-25,-23.0,-33.8,-47.0,-34.0,-43.8,-53.0,74,61,46,29.74,29.47,15,5,16,0.00
2013-3-26,-21.0,-28.6,-37.0,-34.0,-40.3,-47.0,74,57,31,29.79,29.55,14,3,15,0.00
2013-3-27,-21.0,-30.3,-38.0,-36.0,-41.5,-47.0,83,59,31,29.94,29.76,22,4,23,0.00
2013-3-28,-20.0,-29.9,-39.0,-34.0,-39.5,-45.0,85,63,43,30.06,29.88,14,2,16,0.00
2013-3-29,-23.0,-32.1,-46.0,-35.0,-41.5,-50.0,85,64,46,30.08,29.98,10,2,11,0.00
2013-3-30,-21.0,-35.1,-46.0,-46.0,-51.4,-60.0,84,48,18,30.09,29.97,14,3,15,0.00
2013-3-31,-22.0,-36.6,-49.0,-38.0,-47.4,-56.0,90,61,25,30.06,29.55,34,5,34,0.25
2013-4-1,-12.0,-35.4,-43.0,-32.0,-44.6,-60.0,94,66,25,29.83,29.49,38,7,41,0.04
2013-4-2,-36.0,-42.2,-47.0,-50.0,-55.9,-61.0,77,47,33,29.99,29.80,32,10,41,0.00
2013-4-3,-34.0,-40.4,-48.0,-51.0,-57.4,-65.0,59,40,20,30.28,29.94,29,9,30,0.00
2013-4-4,-24.0,-36.6,-50.0,-49.0,-52.9,-58.0,68,43,24,30.29,29.81,22,5,24,0.00
2013-4-5,-23.0,-34.9,-42.0,-47.0,-51.8,-62.0,59,41,21,30.20,29.68,26,6,28,0.00
2013-4-6,-31.0,-40.4,-46.0,-56.0,-61.4,-67.0,48,31,16,30.26,29.95,18,6,20,0.00
2013-4-7,-20.0,-34.1,-49.0,-38.0,-49.2,-61.0,68,46,23,30.21,29.79,34,8,40,0.00
2013-4-8,-17.0,-26.0,-34.0,-35.0,-40.8,-47.0,64,48,30,30.08,29.75,18,5,23,0.05
2013-4-9,-15.0,-24.0,-31.0,-27.0,-33.9,-40.0,92,64,39,29.98,29.75,24,6,24,0.27
2013-4-10,-23.0,-30.3,-36.0,-30.0,-34.7,-52.0,92,84,64,30.00,29.80,18,4,19,0.49
2013-4-11,-34.0,-37.7,-41.0,-37.0,-47.7,-54.0,91,60,42,30.12,29.84,18,6,19,0.04
2013-4-12,-32.0,-35.3,-41.0,-34.0,-38.9,-49.0,94,87,56,30.10,29.73,11,4,12,0.69
2013-4-13,-16.0,-26.8,-35.0,-27.0,-32.4,-37.0,95,79,56,29.93,29.75,19,4,23,0.05
2013-4-14,-7.0,-17.6,-28.0,-20.0,-27.4,-34.0,90,66,35,30.32,29.87,24,5,27,0.01
2013-4-15,5.0,-6.4,-24.0,-17.0,-23.0,-29.0,90,49,32,30.33,30.17,16,5,17,0.00
2013-4-16,-2.0,-9.4,-13.0,-17.0,-24.9,-28.0,54,48,45,30.24,30.20,12,6,14,0.00
2013-10-16,74.0,74.0,74.0,47.0,47.0,47.0,39,39,39,30.06,30.06,0,0,0,0.00
2013-10-17,73.0,72.3,72.0,47.0,45.4,45.0,39,39,38,30.06,29.81,0,0,0,0.00
2013-11-25,55.0,55.0,54.0,20.0,19.2,19.0,27,26,25,30.35,30.28,0,0,0,0.00
2013-11-26,72.0,58.7,55.0,37.0,22.6,-99.9,31,26,19,30.35,30.25,5,0,11,0.00